Portada
METAR-TAF:

METAR-TAF

Aeroports :

Roi Et, Tailàndia

latitud: 16-07-00N, longitud: 103-46-26E, altitud: 138 m

Observació

L'informe es va fer fa 5 hores i 35 minuts, a les 14:00 UTC
Vent 3 kt del Est
Temperatura 27°C
Humitat 94%
Pressió 1008 hPa
Visibilitat 10 km o més
Escasses núvols a una alçada de 3000 ft

METAR: VTUV 291400Z 09003KT 9999 FEW030 27/26 Q1008 NOSIG

Hora: 02:35 (19:35 UTC)

Pronòstic

L'informe es va fer fa 2 hores i 35 minuts, a les 17:00 UTC
Pronòstic vàlid del 29 a les 18 UTC al 30 a les 18 UTC
Vent 5 kt del Sud/Sud-Est
Visibilitat 10 km o més
Núvols disperses a una alçada de 3000 ft
Temporalment
l' 30 a les 09 UTC al 30 a les 12 UTC
Vent 10 kt del Sud/Sud-Oest
Visibilitat: 4500 m
Núvols disperses a una alçada de 2000 ft
Cel ennuvolat a una alçada de 2500 ft
pluja

TAF: VTUV 291700Z 2918/3018 15005KT 9999 SCT030 TEMPO 3009/3012 20010KT 4500 RA SCT020 BKN025

Observacions i pronòstics meteorològics de més de 4000 aeroports (METAR i TAF).

Les estacions disponibles són els punts grocs i vermells al mapa.

Posi el ratolí al punt desitjat per veure el nom de l'estació.

Feu clic per veure les observacions i els pronòstics meteorològics.

Per canviar el mapa: feu clic els botons verds amb una creu de color negre per apropar; al botó verd amb un guió per allunyar la imatge; o en les fletxes verdes per a mapes adjacents.


METAR-TAF: